Main page
METAR-TAF:

METAR-TAF

Airports :

Hua Hin Airport

Hua Hin, Thailand

latitude: 12-35N, longitude: 099-57E, elevation: 5 m

Current weather observation

The report was made 7 hours and 25 minutes ago, at 11:00 UTC
Wind 7 kt from the North, varying between Northwest and Northeast
Temperature 25°C
Humidity 57%
Pressure 1013 hPa
Visibility 10 km or more
no clouds below 1500 m and no cumulonimbus

METAR: VTPH 091100Z 01007KT 320V040 CAVOK 25/16 Q1013 NOSIG

Time: 01:25 (18:25 UTC)

Forecast

The report was made 1 hour and 25 minutes ago, at 17:00 UTC
Forecast valid from 09 at 18 UTC to 10 at 18 UTC
Wind kt from the North
Visibility 10 km or more
no clouds below 1500 m and no cumulonimbus
Becoming
from 10 at 00 UTC to 10 at 02 UTC
Wind 10 kt from the North/Northeast
Visibility: 9000 m
Few clouds at a height of 3000 ft

TAF: VTPH 091700Z 0918/1018 00000KT CAVOK BECMG 1000/1002 02010KT 9000 FEW030

Weather observations and forecasts of more than 4000 airports (METAR and TAF reports).

The available stations are represented by yellow and red dots on the map.

Hover mouse over dot to see the name of the station.

Then click to see weather observations and forecasts.

To change the map : click on the green buttons with a black cross to zoom in, on the green button with a dash to zoom out, or on the green arrows for adjacent maps.


METAR-TAF: